createdAt,value
2023-03-31T00:00:27.866Z,99.90
2023-03-31T00:02:59.071Z,99.90
2023-03-31T00:05:29.874Z,99.90
2023-03-31T00:08:02.233Z,99.90
2023-03-31T00:10:34.259Z,99.90
2023-03-31T00:13:07.260Z,99.90
2023-03-31T00:15:37.596Z,99.90
2023-03-31T00:18:08.408Z,99.90
2023-03-31T00:20:38.456Z,99.90
2023-03-31T00:23:11.374Z,99.90
2023-03-31T00:25:43.960Z,99.90
2023-03-31T00:28:16.553Z,99.90
2023-03-31T00:30:47.554Z,99.90
2023-03-31T00:33:17.771Z,99.90
2023-03-31T00:35:48.199Z,99.90
2023-03-31T00:38:18.269Z,99.90
2023-03-31T00:40:53.840Z,99.90
2023-03-31T00:43:35.126Z,99.90
2023-03-31T00:46:13.899Z,99.90
2023-03-31T00:48:49.545Z,99.90
2023-03-31T00:51:21.636Z,99.90
2023-03-31T00:53:58.013Z,99.90
2023-03-31T00:56:30.842Z,99.90
2023-03-31T00:59:07.916Z,99.90
2023-03-31T01:01:39.852Z,99.90
2023-03-31T01:04:10.845Z,99.90
2023-03-31T01:06:47.510Z,99.90
2023-03-31T01:09:20.730Z,99.90
2023-03-31T01:11:51.606Z,99.90
2023-03-31T01:14:24.533Z,99.90
2023-03-31T01:16:54.912Z,99.90
2023-03-31T01:19:36.699Z,99.90
2023-03-31T01:22:49.951Z,99.90
2023-03-31T01:25:51.574Z,99.90
2023-03-31T01:28:31.160Z,99.90
2023-03-31T01:31:41.112Z,99.90
2023-03-31T01:34:31.545Z,99.90
2023-03-31T01:37:28.930Z,99.90
2023-03-31T01:40:26.045Z,99.90
2023-03-31T01:43:01.490Z,99.90
2023-03-31T01:45:43.402Z,99.90
2023-03-31T01:48:18.906Z,99.90
2023-03-31T01:50:52.320Z,99.90
2023-03-31T01:53:30.361Z,99.90
2023-03-31T01:56:08.884Z,99.90
2023-03-31T01:58:42.450Z,99.90
2023-03-31T02:01:21.222Z,99.90
2023-03-31T02:03:57.006Z,99.90
2023-03-31T02:06:32.121Z,99.90
2023-03-31T02:09:06.897Z,99.90
2023-03-31T02:11:42.160Z,99.90
2023-03-31T02:14:18.965Z,99.90
2023-03-31T02:16:52.602Z,99.90
2023-03-31T02:19:24.805Z,99.90
2023-03-31T02:21:57.155Z,99.90
2023-03-31T02:24:31.162Z,99.90
2023-03-31T02:27:09.396Z,99.90
2023-03-31T02:29:40.153Z,99.90
2023-03-31T02:32:19.331Z,99.90
2023-03-31T02:34:49.810Z,99.90
2023-03-31T02:37:20.764Z,99.90
2023-03-31T02:39:55.615Z,99.90
2023-03-31T02:42:28.727Z,99.90
2023-03-31T02:45:05.245Z,99.90
2023-03-31T02:47:36.498Z,99.90
2023-03-31T02:50:08.176Z,99.90
2023-03-31T02:52:53.562Z,99.90
2023-03-31T02:55:38.155Z,99.90
2023-03-31T02:58:52.702Z,99.90
2023-03-31T03:01:45.218Z,99.90
2023-03-31T03:04:34.303Z,99.90
2023-03-31T03:07:13.864Z,99.90
2023-03-31T03:09:52.557Z,99.90
2023-03-31T03:12:28.354Z,99.90
2023-03-31T03:15:06.405Z,99.90
2023-03-31T03:17:42.139Z,99.90
2023-03-31T03:20:14.203Z,99.90
2023-03-31T03:22:44.266Z,99.90
2023-03-31T03:25:17.390Z,99.90
2023-03-31T03:27:47.761Z,99.90
2023-03-31T03:30:20.697Z,99.90
2023-03-31T03:32:51.028Z,99.90
2023-03-31T03:35:21.689Z,99.90
2023-03-31T03:37:52.134Z,99.90
2023-03-31T03:40:22.537Z,99.90
2023-03-31T03:42:52.699Z,99.90
2023-03-31T03:45:25.870Z,99.90
2023-03-31T03:47:56.111Z,99.90
2023-03-31T03:50:26.432Z,99.90
2023-03-31T03:52:56.925Z,99.90
2023-03-31T03:55:29.183Z,99.90
2023-03-31T03:57:59.118Z,99.90
2023-03-31T04:00:32.063Z,99.90
2023-03-31T04:03:02.370Z,99.90
2023-03-31T04:05:32.385Z,99.90
2023-03-31T04:08:03.118Z,99.90
2023-03-31T04:10:33.385Z,99.90
2023-03-31T04:13:03.924Z,99.90
2023-03-31T04:15:36.835Z,99.90
2023-03-31T04:18:11.675Z,99.90
2023-03-31T04:20:42.748Z,99.90
2023-03-31T04:23:15.309Z,99.90
2023-03-31T04:25:46.818Z,99.90
2023-03-31T04:28:17.350Z,99.90
2023-03-31T04:30:50.099Z,99.90
2023-03-31T04:33:20.387Z,99.90
2023-03-31T04:35:53.447Z,99.90
2023-03-31T04:38:27.515Z,99.90
2023-03-31T04:40:58.486Z,99.90
2023-03-31T04:43:28.682Z,99.90
2023-03-31T04:46:01.833Z,99.90
2023-03-31T04:48:31.941Z,99.90
2023-03-31T04:51:02.262Z,99.90
2023-03-31T04:53:32.436Z,99.90
2023-03-31T04:56:02.913Z,99.90
2023-03-31T04:58:32.836Z,99.90
2023-03-31T05:01:06.610Z,99.90
2023-03-31T05:03:37.418Z,99.90
2023-03-31T05:06:09.183Z,99.90
2023-03-31T05:08:39.601Z,99.90
2023-03-31T05:11:09.658Z,99.90
2023-03-31T05:13:39.632Z,99.90
2023-03-31T05:16:15.062Z,99.90
2023-03-31T05:18:45.183Z,99.90
2023-03-31T05:21:17.762Z,99.90
2023-03-31T05:23:48.889Z,99.90
2023-03-31T05:26:19.163Z,99.90
2023-03-31T05:28:51.824Z,99.90
2023-03-31T05:31:25.475Z,99.90
2023-03-31T05:33:55.482Z,99.90
2023-03-31T05:36:27.405Z,99.90
2023-03-31T05:38:58.655Z,99.90
2023-03-31T05:41:28.974Z,99.90
2023-03-31T05:43:58.945Z,99.90
2023-03-31T05:46:31.611Z,99.90
2023-03-31T05:49:03.223Z,99.90
2023-03-31T05:51:33.261Z,99.90
2023-03-31T05:54:03.456Z,99.90
2023-03-31T05:56:33.815Z,99.90
2023-03-31T05:59:05.327Z,99.90
2023-03-31T06:01:38.142Z,99.90
2023-03-31T06:07:17.970Z,99.90
2023-03-31T06:09:48.563Z,99.90
2023-03-31T06:12:19.161Z,99.90
2023-03-31T06:14:49.124Z,99.90
2023-03-31T06:17:22.115Z,99.90
2023-03-31T06:19:52.083Z,99.90
2023-03-31T06:22:22.064Z,99.90
2023-03-31T06:24:52.050Z,99.90
2023-03-31T06:27:22.166Z,99.90
2023-03-31T06:29:52.499Z,99.90
2023-03-31T06:32:25.035Z,99.90
2023-03-31T06:34:55.141Z,99.90
2023-03-31T06:37:25.125Z,99.90
2023-03-31T06:39:55.905Z,99.90
2023-03-31T06:42:26.274Z,99.90
2023-03-31T06:44:56.361Z,99.90
2023-03-31T06:47:30.293Z,99.90
2023-03-31T06:50:00.241Z,99.90
2023-03-31T06:52:30.309Z,99.90
2023-03-31T06:55:01.886Z,99.90
2023-03-31T06:57:37.378Z,99.90
2023-03-31T07:00:08.943Z,99.90
2023-03-31T07:02:41.658Z,99.90
2023-03-31T07:05:13.009Z,99.90
2023-03-31T07:07:46.200Z,99.90
2023-03-31T07:10:16.844Z,99.90
2023-03-31T07:12:48.351Z,99.90
2023-03-31T07:15:21.085Z,99.90
2023-03-31T07:18:03.567Z,99.90
2023-03-31T07:20:35.040Z,99.90
2023-03-31T07:23:08.874Z,99.90
2023-03-31T07:25:40.883Z,99.90
2023-03-31T07:28:11.438Z,99.90
2023-03-31T07:30:45.307Z,99.90
2023-03-31T07:33:18.277Z,99.90
2023-03-31T07:35:59.958Z,99.90
2023-03-31T07:38:40.446Z,99.90
2023-03-31T07:41:13.760Z,99.90
2023-03-31T07:43:46.383Z,99.90
2023-03-31T07:46:21.969Z,99.90
2023-03-31T07:48:55.579Z,99.90
2023-03-31T07:51:29.131Z,99.90
2023-03-31T07:53:59.081Z,99.90
2023-03-31T07:56:32.031Z,99.90
2023-03-31T07:59:03.259Z,99.90
2023-03-31T08:01:34.510Z,99.90
2023-03-31T08:04:08.578Z,99.90
2023-03-31T08:06:40.327Z,99.90
2023-03-31T08:09:11.291Z,99.90
2023-03-31T08:11:41.309Z,99.90
2023-03-31T08:14:12.090Z,99.90
2023-03-31T08:16:42.298Z,99.90
2023-03-31T08:19:15.433Z,99.90
2023-03-31T08:21:45.634Z,99.90
2023-03-31T08:26:46.522Z,99.90
2023-03-31T08:29:16.682Z,99.90
2023-03-31T08:31:46.881Z,99.90
2023-03-31T08:34:20.490Z,99.90
2023-03-31T08:36:50.974Z,99.90
2023-03-31T08:39:21.370Z,99.50
2023-03-31T08:42:00.217Z,99.00
2023-03-31T08:44:37.544Z,97.20
2023-03-31T08:47:13.155Z,97.10
2023-03-31T08:49:51.245Z,95.60
2023-03-31T08:52:28.679Z,96.00
2023-03-31T09:02:49.388Z,93.30
2023-03-31T09:05:59.657Z,94.00
2023-03-31T09:08:36.570Z,94.10
2023-03-31T09:11:17.734Z,95.30
2023-03-31T09:14:05.097Z,96.00
2023-03-31T09:16:38.979Z,95.50
2023-03-31T09:19:17.132Z,95.00
2023-03-31T09:21:52.591Z,95.50
2023-03-31T09:24:29.806Z,95.00
2023-03-31T09:27:04.436Z,95.40
2023-03-31T09:29:44.338Z,95.00
2023-03-31T09:32:19.523Z,94.70
2023-03-31T09:34:53.380Z,95.80
2023-03-31T09:37:28.370Z,93.90
2023-03-31T09:39:58.622Z,93.30
2023-03-31T09:42:29.107Z,95.30
2023-03-31T09:44:59.204Z,96.20
2023-03-31T09:47:35.824Z,97.60
2023-03-31T09:50:06.737Z,99.30
2023-03-31T09:52:42.722Z,99.60
2023-03-31T09:55:38.307Z,99.90
2023-03-31T09:58:10.397Z,99.90
2023-03-31T10:00:45.242Z,99.90
2023-03-31T10:03:18.276Z,99.90
2023-03-31T10:05:54.398Z,99.90
2023-03-31T10:08:31.912Z,99.10
2023-03-31T10:11:11.912Z,97.90
2023-03-31T10:13:48.770Z,96.40
2023-03-31T10:16:31.212Z,95.70
2023-03-31T10:19:16.223Z,95.30
2023-03-31T10:21:49.361Z,94.50
2023-03-31T10:24:24.347Z,94.30
2023-03-31T10:26:57.430Z,95.90
2023-03-31T10:29:34.271Z,95.80
2023-03-31T10:32:11.862Z,94.40
2023-03-31T10:34:45.926Z,92.30
2023-03-31T10:37:20.659Z,92.30
2023-03-31T10:40:00.809Z,92.90
2023-03-31T10:42:31.649Z,94.00
2023-03-31T10:45:26.356Z,93.10
2023-03-31T10:48:04.459Z,93.40
2023-03-31T10:50:36.542Z,93.70
2023-03-31T10:53:09.057Z,93.80
2023-03-31T10:55:48.739Z,94.80
2023-03-31T10:58:34.862Z,95.10
2023-03-31T11:01:17.607Z,94.40
2023-03-31T11:04:09.621Z,93.60
2023-03-31T11:06:54.694Z,93.00
2023-03-31T11:09:41.221Z,90.60
2023-03-31T11:12:21.042Z,92.30
2023-03-31T11:15:02.737Z,92.70
2023-03-31T11:17:44.997Z,92.70
2023-03-31T11:20:24.216Z,93.30
2023-03-31T11:23:02.117Z,95.00
2023-03-31T11:25:42.276Z,96.40
2023-03-31T11:28:30.639Z,99.90
2023-03-31T11:31:12.624Z,99.90
2023-03-31T11:33:59.970Z,99.90
2023-03-31T11:36:49.684Z,99.90
2023-03-31T11:39:36.181Z,99.90
2023-03-31T11:42:11.499Z,99.90
2023-03-31T11:44:48.136Z,99.90
2023-03-31T11:47:22.712Z,99.90
2023-03-31T11:49:59.310Z,99.90
2023-03-31T11:52:33.229Z,99.90
2023-03-31T11:55:09.268Z,99.90
2023-03-31T11:57:44.669Z,99.90
2023-03-31T12:00:23.149Z,99.90
2023-03-31T12:02:59.000Z,99.90
2023-03-31T12:05:32.064Z,99.90
2023-03-31T12:08:08.544Z,99.90
2023-03-31T12:10:41.373Z,99.90
2023-03-31T12:13:34.071Z,99.90
2023-03-31T12:16:12.786Z,99.90
2023-03-31T12:18:49.953Z,99.90
2023-03-31T12:21:20.766Z,99.90
2023-03-31T12:23:54.349Z,99.90
2023-03-31T12:26:36.817Z,99.90
2023-03-31T12:29:25.303Z,99.90
2023-03-31T12:32:01.723Z,99.90
2023-03-31T12:34:33.138Z,99.90
2023-03-31T12:37:28.846Z,99.90
2023-03-31T12:40:13.800Z,99.90
2023-03-31T12:43:03.905Z,99.90
2023-03-31T12:45:37.226Z,99.90
2023-03-31T12:48:34.299Z,99.90
2023-03-31T12:51:24.234Z,99.90
2023-03-31T12:54:10.860Z,99.90
2023-03-31T12:57:17.552Z,99.90
2023-03-31T12:59:48.596Z,99.90
2023-03-31T13:02:26.782Z,99.90
2023-03-31T13:04:59.700Z,99.90
2023-03-31T13:07:44.392Z,99.90
2023-03-31T13:10:31.289Z,99.90
2023-03-31T13:13:07.696Z,99.90
2023-03-31T13:15:38.104Z,99.90
2023-03-31T13:18:10.652Z,99.90
2023-03-31T13:20:43.966Z,99.90
2023-03-31T13:23:23.015Z,99.90
2023-03-31T13:25:54.749Z,99.90
2023-03-31T13:28:47.086Z,99.90
2023-03-31T13:31:18.085Z,99.90
2023-03-31T13:33:57.917Z,99.90
2023-03-31T13:37:01.972Z,99.90
2023-03-31T13:40:08.375Z,99.90
2023-03-31T13:43:11.050Z,99.90
2023-03-31T13:45:57.546Z,99.90
2023-03-31T13:49:03.117Z,99.90
2023-03-31T13:51:44.381Z,99.90
2023-03-31T13:54:59.231Z,99.90
2023-03-31T13:58:03.285Z,99.90
2023-03-31T16:17:05.317Z,99.90
2023-03-31T16:19:44.341Z,99.90
2023-03-31T16:22:20.537Z,99.90
2023-03-31T16:24:51.669Z,99.90
2023-03-31T16:27:22.149Z,99.90
2023-03-31T16:29:52.264Z,99.90
2023-03-31T16:32:24.903Z,99.90
2023-03-31T16:34:56.868Z,99.90
2023-03-31T16:37:28.469Z,99.90
2023-03-31T16:39:59.394Z,99.90
2023-03-31T16:42:30.364Z,99.90
2023-03-31T16:45:13.807Z,99.90
2023-03-31T16:47:47.223Z,99.90
2023-03-31T16:50:17.504Z,99.90
2023-03-31T16:52:47.930Z,99.90
2023-03-31T16:55:18.151Z,99.90
2023-03-31T16:57:48.929Z,99.90
2023-03-31T17:00:20.731Z,99.90
2023-03-31T17:02:53.870Z,99.90
2023-03-31T17:05:24.086Z,99.90
2023-03-31T17:07:54.194Z,99.90
2023-03-31T17:10:24.526Z,99.90
2023-03-31T17:12:55.148Z,99.90
2023-03-31T17:15:25.559Z,99.90
2023-03-31T17:17:59.186Z,99.90
2023-03-31T17:20:29.507Z,99.90
2023-03-31T17:22:59.759Z,99.90
2023-03-31T17:25:30.455Z,99.90
2023-03-31T17:28:01.737Z,99.90
2023-03-31T17:30:32.023Z,99.90
2023-03-31T17:33:05.666Z,99.90
2023-03-31T17:35:36.448Z,99.90
2023-03-31T17:38:07.368Z,99.90
2023-03-31T17:40:38.404Z,99.90
2023-03-31T17:43:09.105Z,99.90
2023-03-31T17:45:39.520Z,99.90
2023-03-31T17:48:13.105Z,99.90
2023-03-31T17:50:43.215Z,99.90
2023-03-31T17:53:13.548Z,99.90
2023-03-31T17:55:44.189Z,99.90
2023-03-31T17:58:19.294Z,99.90
2023-03-31T18:00:49.913Z,99.90
2023-03-31T18:03:22.608Z,99.90
2023-03-31T18:05:53.089Z,99.90
2023-03-31T18:08:23.645Z,99.90
2023-03-31T18:10:54.171Z,99.90
2023-03-31T18:13:24.701Z,99.90
2023-03-31T18:15:55.881Z,99.90
2023-03-31T18:18:29.735Z,99.90
2023-03-31T18:21:00.523Z,99.90
2023-03-31T18:23:30.948Z,99.90
2023-03-31T18:26:01.162Z,99.90
2023-03-31T18:28:31.760Z,99.90
2023-03-31T18:31:06.397Z,99.90
2023-03-31T18:33:40.579Z,99.90
2023-03-31T18:36:13.478Z,99.90
2023-03-31T18:38:44.008Z,99.90
2023-03-31T18:41:14.874Z,99.90
2023-03-31T18:43:45.339Z,99.90
2023-03-31T18:46:15.760Z,99.90
2023-03-31T18:48:49.564Z,99.90
2023-03-31T18:51:20.427Z,99.90
2023-03-31T18:53:50.972Z,99.90
2023-03-31T18:56:23.435Z,99.90
2023-03-31T18:58:54.149Z,99.90
2023-03-31T19:01:24.494Z,99.90
2023-03-31T19:03:57.702Z,99.90
2023-03-31T19:06:27.818Z,99.90
2023-03-31T19:08:58.914Z,99.90
2023-03-31T19:11:29.406Z,99.90
2023-03-31T19:13:59.586Z,99.90
2023-03-31T19:16:30.220Z,99.90
2023-03-31T19:19:04.454Z,99.90
2023-03-31T19:21:36.664Z,99.90
2023-03-31T19:24:10.163Z,99.90
2023-03-31T19:26:40.579Z,99.90
2023-03-31T19:29:10.674Z,99.90
2023-03-31T19:31:42.002Z,99.90
2023-03-31T19:34:16.942Z,99.90
2023-03-31T19:36:47.424Z,99.90
2023-03-31T19:39:18.625Z,99.90
2023-03-31T19:41:49.242Z,99.90
2023-03-31T19:44:19.302Z,99.90
2023-03-31T19:46:49.728Z,99.90
2023-03-31T19:49:22.924Z,99.90
2023-03-31T19:51:53.547Z,99.90
2023-03-31T19:54:23.581Z,99.90
2023-03-31T19:56:53.720Z,99.90
2023-03-31T19:59:23.690Z,99.90
2023-03-31T20:01:54.195Z,99.90
2023-03-31T20:04:27.145Z,99.90
2023-03-31T20:06:58.512Z,99.90
2023-03-31T20:09:29.484Z,99.90
2023-03-31T20:11:59.690Z,99.90
2023-03-31T20:14:30.882Z,99.90
2023-03-31T20:17:03.627Z,99.90
2023-03-31T20:19:36.740Z,99.90
2023-03-31T20:22:07.321Z,99.90
2023-03-31T20:24:38.708Z,99.90
2023-03-31T20:27:09.200Z,99.90
2023-03-31T20:29:39.353Z,99.90
2023-03-31T20:32:10.034Z,99.90
2023-03-31T20:34:42.915Z,99.90
2023-03-31T20:37:13.369Z,99.90
2023-03-31T20:39:44.850Z,99.90
2023-03-31T20:42:14.935Z,99.90
2023-03-31T20:44:45.205Z,99.90
2023-03-31T20:47:15.979Z,99.90
2023-03-31T20:49:49.230Z,99.90
2023-03-31T20:52:19.446Z,99.90
2023-03-31T20:54:49.541Z,99.90
2023-03-31T20:57:19.942Z,99.90
2023-03-31T20:59:50.093Z,99.90
2023-03-31T21:02:20.171Z,99.90
2023-03-31T21:04:53.322Z,99.90
2023-03-31T21:07:23.480Z,99.90
2023-03-31T21:09:53.613Z,99.90
2023-03-31T21:12:23.954Z,99.90
2023-03-31T21:14:54.487Z,99.90
2023-03-31T21:17:24.874Z,99.90
2023-03-31T21:19:57.746Z,99.90
2023-03-31T21:22:27.853Z,99.90
2023-03-31T21:25:01.286Z,99.90
2023-03-31T21:27:32.267Z,99.90
2023-03-31T21:30:02.930Z,99.90
2023-03-31T21:32:33.246Z,99.90
2023-03-31T21:35:06.611Z,99.90
2023-03-31T21:37:37.408Z,99.90
2023-03-31T21:40:08.694Z,99.90
2023-03-31T21:42:39.150Z,99.90
2023-03-31T21:45:11.437Z,99.90
2023-03-31T21:47:41.732Z,99.90
2023-03-31T21:50:15.130Z,99.90
2023-03-31T21:52:45.166Z,99.90
2023-03-31T21:55:15.384Z,99.90
2023-03-31T21:57:45.619Z,99.90
2023-03-31T22:00:17.024Z,99.90
2023-03-31T22:02:47.490Z,99.90
2023-03-31T22:05:20.358Z,99.90
2023-03-31T22:07:51.198Z,99.90
2023-03-31T22:10:21.562Z,99.90
2023-03-31T22:12:51.850Z,99.90
2023-03-31T22:15:23.035Z,99.90
2023-03-31T22:17:53.198Z,99.90
2023-03-31T22:20:26.769Z,99.90
2023-03-31T22:22:57.920Z,99.90
2023-03-31T22:25:28.406Z,99.90
2023-03-31T22:27:58.701Z,99.90
2023-03-31T22:30:28.944Z,99.90
2023-03-31T22:32:59.095Z,99.90
2023-03-31T22:35:32.565Z,99.90
2023-03-31T22:38:03.410Z,99.90
2023-03-31T22:40:34.195Z,99.90
2023-03-31T22:43:05.259Z,99.90
2023-03-31T22:45:35.335Z,99.90
2023-03-31T22:48:05.703Z,99.90
2023-03-31T22:50:38.777Z,99.90
2023-03-31T22:53:10.369Z,99.90
2023-03-31T22:55:44.309Z,99.90
2023-03-31T22:58:25.852Z,99.90
2023-03-31T23:00:59.941Z,99.90
2023-03-31T23:03:31.116Z,99.90
2023-03-31T23:06:05.490Z,99.90
2023-03-31T23:08:37.229Z,99.90
2023-03-31T23:11:09.187Z,99.90
2023-03-31T23:13:39.439Z,99.90
2023-03-31T23:16:11.778Z,99.90
2023-03-31T23:18:46.224Z,99.90
2023-03-31T23:21:23.038Z,99.90
2023-03-31T23:23:53.958Z,99.90
2023-03-31T23:26:26.519Z,99.90
2023-03-31T23:28:57.651Z,99.90
2023-03-31T23:31:30.578Z,99.90
2023-03-31T23:34:01.494Z,99.90
2023-03-31T23:36:35.015Z,99.90
2023-03-31T23:39:06.858Z,99.90
2023-03-31T23:41:37.100Z,99.90
2023-03-31T23:44:07.718Z,99.90
2023-03-31T23:46:39.865Z,99.90
2023-03-31T23:49:09.907Z,99.90
2023-03-31T23:51:43.009Z,99.90
2023-03-31T23:54:13.363Z,99.90
2023-03-31T23:56:43.707Z,99.90
2023-03-31T23:59:14.077Z,99.90
